createdAt,value
2018-09-06T00:01:33.018Z,43.07
2018-09-06T00:04:01.357Z,45.50
2018-09-06T00:06:29.684Z,55.03
2018-09-06T00:08:58.271Z,51.50
2018-09-06T00:11:26.702Z,51.53
2018-09-06T00:13:55.025Z,55.10
2018-09-06T00:16:23.371Z,61.93
2018-09-06T00:18:51.885Z,58.20
2018-09-06T00:21:20.213Z,68.53
2018-09-06T00:23:48.526Z,69.77
2018-09-06T00:26:17.103Z,69.53
2018-09-06T00:28:45.457Z,74.17
2018-09-06T00:31:13.769Z,70.37
2018-09-06T00:33:42.092Z,72.30
2018-09-06T00:36:10.441Z,66.30
2018-09-06T00:38:38.785Z,64.00
2018-09-06T00:41:07.151Z,68.87
2018-09-06T00:43:35.501Z,59.60
2018-09-06T00:46:04.089Z,65.00
2018-09-06T00:48:32.473Z,66.30
2018-09-06T00:51:01.656Z,55.47
2018-09-06T00:53:29.937Z,55.30
2018-09-06T00:55:58.494Z,64.63
2018-09-06T00:58:26.834Z,51.47
2018-09-06T01:00:55.184Z,62.30
2018-09-06T01:03:23.496Z,59.20
2018-09-06T01:05:51.831Z,61.80
2018-09-06T01:08:20.192Z,54.87
2018-09-06T01:10:48.541Z,65.10
2018-09-06T01:13:16.873Z,60.40
2018-09-06T01:15:45.196Z,58.33
2018-09-06T01:18:13.506Z,57.43
2018-09-06T01:20:41.861Z,59.70
2018-09-06T01:23:10.201Z,58.80
2018-09-06T01:25:48.985Z,60.10
2018-09-06T01:28:18.701Z,62.40
2018-09-06T01:30:47.173Z,60.20
2018-09-06T01:33:15.510Z,60.40
2018-09-06T01:36:46.921Z,72.93
2018-09-06T01:39:15.580Z,57.63
2018-09-06T01:41:44.053Z,55.27
2018-09-06T01:44:12.429Z,59.30
2018-09-06T01:46:40.761Z,61.67
2018-09-06T01:49:09.332Z,65.87
2018-09-06T01:51:37.642Z,58.60
2018-09-06T01:54:05.960Z,70.30
2018-09-06T01:56:34.293Z,72.00
2018-09-06T01:59:02.761Z,86.83
2018-09-06T02:01:31.141Z,78.13
2018-09-06T02:03:59.468Z,81.13
2018-09-06T02:06:27.792Z,91.23
2018-09-06T02:08:56.124Z,88.30
2018-09-06T02:11:24.491Z,90.07
2018-09-06T02:13:52.816Z,94.30
2018-09-06T02:16:21.124Z,94.13
2018-09-06T02:18:49.453Z,96.23
2018-09-06T02:21:17.808Z,97.90
2018-09-06T02:23:46.164Z,85.23
2018-09-06T02:26:14.509Z,82.90
2018-09-06T02:28:42.833Z,91.93
2018-09-06T02:31:11.166Z,79.60
2018-09-06T02:33:40.112Z,80.73
2018-09-06T02:36:08.464Z,76.73
2018-09-06T02:38:36.799Z,88.07
2018-09-06T02:41:05.139Z,70.30
2018-09-06T02:43:33.476Z,87.43
2018-09-06T02:46:01.832Z,94.80
2018-09-06T02:48:35.389Z,83.80
2018-09-06T02:51:08.969Z,91.00
2018-09-06T02:53:37.344Z,100.20
2018-09-06T02:56:06.049Z,93.37
2018-09-06T02:58:34.386Z,94.60
2018-09-06T03:01:02.719Z,93.70
2018-09-06T03:03:31.060Z,92.57
2018-09-06T03:05:59.397Z,104.70
2018-09-06T03:08:27.823Z,104.50
2018-09-06T03:11:03.381Z,137.10
2018-09-06T03:13:31.708Z,137.10
2018-09-06T03:16:00.786Z,147.33
2018-09-06T03:18:30.096Z,173.60
2018-09-06T03:20:58.432Z,163.57
2018-09-06T03:23:27.028Z,154.70
2018-09-06T03:25:55.381Z,158.20
2018-09-06T03:28:24.317Z,184.77
2018-09-06T03:30:52.758Z,147.20
2018-09-06T03:33:21.201Z,149.27
2018-09-06T03:35:52.219Z,125.33
2018-09-06T03:38:20.667Z,123.30
2018-09-06T03:40:49.055Z,111.00
2018-09-06T03:43:19.997Z,138.53
2018-09-06T03:45:48.458Z,135.77
2018-09-06T03:48:16.948Z,117.43
2018-09-06T03:50:45.376Z,120.40
2018-09-06T03:53:13.977Z,114.33
2018-09-06T03:55:42.446Z,131.33
2018-09-06T03:58:10.810Z,145.77
2018-09-06T04:00:39.137Z,127.97
2018-09-06T04:03:07.525Z,125.40
2018-09-06T04:05:35.874Z,117.33
2018-09-06T04:08:04.244Z,110.60
2018-09-06T04:10:32.586Z,113.67
2018-09-06T04:13:00.920Z,111.47
2018-09-06T04:15:29.286Z,118.80
2018-09-06T04:17:57.656Z,118.07
2018-09-06T04:20:26.022Z,122.57
2018-09-06T04:22:55.393Z,115.37
2018-09-06T04:25:23.734Z,120.70
2018-09-06T04:27:52.056Z,137.90
2018-09-06T04:30:20.420Z,151.50
2018-09-06T04:32:48.743Z,157.37
2018-09-06T04:35:17.103Z,197.53
2018-09-06T04:37:45.408Z,153.03
2018-09-06T04:40:13.757Z,146.47
2018-09-06T04:42:42.077Z,146.03
2018-09-06T04:45:10.441Z,121.10
2018-09-06T04:47:38.744Z,104.90
2018-09-06T04:50:07.174Z,109.33
2018-09-06T04:52:35.493Z,115.97
2018-09-06T04:55:03.837Z,101.07
2018-09-06T04:57:32.181Z,115.83
2018-09-06T05:00:00.502Z,113.93
2018-09-06T05:02:28.826Z,100.03
2018-09-06T05:04:57.209Z,132.03
2018-09-06T05:07:25.811Z,117.37
2018-09-06T05:09:54.136Z,130.50
2018-09-06T05:12:23.157Z,124.40
2018-09-06T05:14:51.505Z,131.50
2018-09-06T05:17:21.709Z,139.70
2018-09-06T05:19:50.038Z,152.30
2018-09-06T05:22:18.385Z,126.57
2018-09-06T05:24:46.841Z,125.57
2018-09-06T05:27:15.153Z,138.50
2018-09-06T05:29:43.509Z,151.73
2018-09-06T05:32:12.296Z,157.13
2018-09-06T05:34:40.620Z,181.53
2018-09-06T05:37:08.978Z,170.30
2018-09-06T05:39:37.304Z,127.03
2018-09-06T05:42:05.716Z,136.60
2018-09-06T05:44:34.065Z,146.10
2018-09-06T05:47:02.449Z,191.27
2018-09-06T05:49:30.829Z,143.83
2018-09-06T05:51:59.168Z,120.27
2018-09-06T05:54:27.495Z,155.27
2018-09-06T05:56:55.813Z,134.00
2018-09-06T05:59:24.234Z,111.20
2018-09-06T06:01:52.541Z,117.80
2018-09-06T06:04:28.854Z,125.40
2018-09-06T06:06:57.205Z,118.73
2018-09-06T06:09:25.511Z,114.53
2018-09-06T06:12:12.190Z,115.87
2018-09-06T06:14:40.600Z,117.17
2018-09-06T06:17:09.943Z,101.73
2018-09-06T06:19:41.026Z,110.60
2018-09-06T06:22:09.454Z,110.87
2018-09-06T06:24:37.718Z,104.40
2018-09-06T06:27:06.061Z,95.63
2018-09-06T06:29:34.381Z,103.80
2018-09-06T06:32:02.684Z,103.23
2018-09-06T06:34:31.038Z,111.47
2018-09-06T06:36:59.416Z,103.30
2018-09-06T06:39:27.744Z,91.53
2018-09-06T06:41:56.060Z,99.57
2018-09-06T06:44:24.536Z,94.40
2018-09-06T06:46:52.856Z,82.73
2018-09-06T06:49:21.165Z,94.13
2018-09-06T06:51:49.490Z,78.47
2018-09-06T06:54:17.803Z,74.13
2018-09-06T06:56:46.481Z,70.93
2018-09-06T06:59:15.047Z,67.63
2018-09-06T07:01:43.648Z,70.17
2018-09-06T07:04:12.022Z,68.07
2018-09-06T07:06:40.326Z,65.00
2018-09-06T07:09:09.692Z,61.83
2018-09-06T07:11:38.038Z,67.47
2018-09-06T07:14:13.049Z,61.23
2018-09-06T07:16:41.395Z,59.90
2018-09-06T07:19:10.853Z,54.50
2018-09-06T07:21:39.268Z,63.30
2018-09-06T07:24:08.243Z,56.67
2018-09-06T07:26:36.585Z,59.30
2018-09-06T07:29:04.972Z,58.67
2018-09-06T07:31:33.334Z,51.93
2018-09-06T07:34:01.668Z,60.47
2018-09-06T07:36:30.086Z,52.33
2018-09-06T07:38:58.418Z,50.43
2018-09-06T07:41:26.819Z,52.40
2018-09-06T07:43:55.078Z,57.87
2018-09-06T07:46:23.408Z,58.00
2018-09-06T07:48:51.753Z,58.17
2018-09-06T07:51:20.085Z,60.43
2018-09-06T07:53:48.397Z,63.03
2018-09-06T07:56:16.780Z,68.30
2018-09-06T07:58:45.764Z,62.63
2018-09-06T08:01:14.076Z,72.80
2018-09-06T08:03:43.208Z,65.93
2018-09-06T08:06:11.633Z,75.37
2018-09-06T08:08:39.938Z,78.97
2018-09-06T08:11:08.241Z,79.93
2018-09-06T08:13:36.590Z,83.53
2018-09-06T08:16:05.235Z,76.83
2018-09-06T08:18:33.553Z,79.67
2018-09-06T08:21:01.934Z,87.43
2018-09-06T08:23:30.317Z,88.93
2018-09-06T08:25:58.932Z,93.67
2018-09-06T08:28:27.285Z,84.73
2018-09-06T08:30:55.713Z,89.70
2018-09-06T08:33:23.913Z,88.03
2018-09-06T08:35:52.576Z,100.73
2018-09-06T08:38:20.953Z,97.20
2018-09-06T08:40:49.280Z,87.23
2018-09-06T08:43:17.655Z,103.30
2018-09-06T08:45:46.005Z,96.00
2018-09-06T08:48:14.349Z,100.57
2018-09-06T08:50:42.692Z,125.53
2018-09-06T08:53:11.028Z,103.17
2018-09-06T08:55:39.388Z,107.43
2018-09-06T08:58:07.721Z,110.27
2018-09-06T09:00:39.719Z,135.07
2018-09-06T09:03:08.640Z,123.90
2018-09-06T09:05:37.077Z,132.13
2018-09-06T09:08:05.809Z,120.80
2018-09-06T09:10:34.683Z,140.43
2018-09-06T09:13:03.066Z,125.87
2018-09-06T09:15:31.362Z,122.13
2018-09-06T09:17:59.677Z,117.40
2018-09-06T09:20:28.034Z,129.43
2018-09-06T09:22:56.361Z,124.23
2018-09-06T09:25:24.773Z,108.70
2018-09-06T09:27:53.108Z,193.33
2018-09-06T09:30:21.442Z,101.60
2018-09-06T09:32:49.773Z,109.03
2018-09-06T09:35:18.125Z,111.07
2018-09-06T09:37:46.530Z,113.80
2018-09-06T09:40:14.890Z,96.53
2018-09-06T09:42:43.229Z,135.90
2018-09-06T09:45:11.381Z,101.27
2018-09-06T09:47:39.771Z,95.17
2018-09-06T09:50:08.081Z,113.43
2018-09-06T09:52:36.460Z,101.50
2018-09-06T09:55:04.801Z,103.63
2018-09-06T09:57:33.189Z,119.83
2018-09-06T10:00:01.657Z,118.60
2018-09-06T10:02:35.403Z,106.80
2018-09-06T10:07:12.101Z,114.20
2018-09-06T10:09:40.430Z,121.93
2018-09-06T10:12:08.795Z,116.13
2018-09-06T10:14:37.113Z,118.10
2018-09-06T10:17:05.505Z,106.50
2018-09-06T10:19:33.818Z,108.77
2018-09-06T10:22:02.168Z,115.97
2018-09-06T10:24:31.620Z,105.27
2018-09-06T10:27:00.011Z,114.07
2018-09-06T10:29:28.337Z,118.17
2018-09-06T10:31:56.695Z,110.87
2018-09-06T10:34:25.152Z,121.50
2018-09-06T10:36:53.476Z,129.57
2018-09-06T10:39:21.869Z,110.97
2018-09-06T10:41:50.164Z,118.80
2018-09-06T10:44:18.512Z,122.57
2018-09-06T10:46:46.935Z,107.13
2018-09-06T10:49:15.266Z,114.87
2018-09-06T10:51:43.582Z,111.20
2018-09-06T10:54:11.954Z,87.63
2018-09-06T10:56:40.389Z,77.00
2018-09-06T10:59:08.717Z,78.90
2018-09-06T11:01:37.177Z,87.17
2018-09-06T11:04:05.578Z,75.30
2018-09-06T11:06:33.949Z,78.77
2018-09-06T11:09:02.325Z,70.83
2018-09-06T11:11:30.658Z,71.33
2018-09-06T11:13:58.988Z,77.97
2018-09-06T11:16:27.736Z,94.17
2018-09-06T11:18:56.060Z,88.20
2018-09-06T11:21:24.410Z,80.37
2018-09-06T11:23:52.663Z,83.70
2018-09-06T11:26:20.985Z,90.80
2018-09-06T11:28:49.296Z,98.57
2018-09-06T11:31:17.630Z,100.33
2018-09-06T11:33:45.951Z,98.43
2018-09-06T11:36:14.280Z,103.20
2018-09-06T11:38:43.589Z,96.90
2018-09-06T11:41:11.941Z,98.63
2018-09-06T11:43:40.264Z,95.60
2018-09-06T11:46:08.777Z,99.67
2018-09-06T11:48:37.150Z,96.50
2018-09-06T11:51:05.901Z,100.90
2018-09-06T11:53:34.220Z,97.20
2018-09-06T11:56:02.561Z,99.03
2018-09-06T11:58:30.921Z,87.33
2018-09-06T12:00:59.257Z,94.77
2018-09-06T12:03:27.665Z,87.00
2018-09-06T12:05:56.044Z,90.93
2018-09-06T12:08:24.378Z,88.43
2018-09-06T12:10:52.752Z,88.97
2018-09-06T12:13:21.118Z,91.60
2018-09-06T12:15:49.482Z,87.33
2018-09-06T12:18:17.879Z,89.07
2018-09-06T12:20:46.304Z,77.77
2018-09-06T12:23:14.773Z,84.67
2018-09-06T12:25:43.097Z,78.17
2018-09-06T12:28:11.504Z,75.90
2018-09-06T12:30:40.362Z,70.10
2018-09-06T12:33:09.083Z,69.13
2018-09-06T12:35:37.937Z,66.97
2018-09-06T12:38:06.277Z,81.50
2018-09-06T12:40:34.592Z,77.60
2018-09-06T12:43:02.952Z,85.93
2018-09-06T12:45:32.024Z,93.83
2018-09-06T12:48:00.416Z,81.43
2018-09-06T12:50:28.768Z,83.20
2018-09-06T12:52:57.173Z,87.70
2018-09-06T12:55:25.504Z,83.90
2018-09-06T12:57:53.888Z,90.10
2018-09-06T13:00:22.241Z,85.23
2018-09-06T13:02:50.545Z,85.40
2018-09-06T13:05:18.890Z,80.63
2018-09-06T13:07:47.238Z,79.10
2018-09-06T13:10:15.629Z,76.17
2018-09-06T13:12:43.940Z,76.60
2018-09-06T13:15:12.272Z,76.07
2018-09-06T13:17:40.596Z,75.93
2018-09-06T13:20:08.972Z,71.20
2018-09-06T13:22:37.296Z,73.30
2018-09-06T13:25:05.744Z,67.93
2018-09-06T13:27:34.108Z,72.77
2018-09-06T13:30:02.503Z,64.00
2018-09-06T13:32:31.426Z,66.37
2018-09-06T13:34:59.738Z,69.43
2018-09-06T13:37:28.045Z,75.67
2018-09-06T13:39:56.352Z,66.20
2018-09-06T13:42:24.685Z,67.03
2018-09-06T13:44:53.039Z,57.70
2018-09-06T13:47:21.350Z,64.17
2018-09-06T13:49:49.652Z,59.50
2018-09-06T13:52:18.072Z,58.50
2018-09-06T13:54:46.307Z,59.20
2018-09-06T13:57:14.624Z,57.50
2018-09-06T13:59:42.962Z,66.93
2018-09-06T14:02:11.290Z,67.77
2018-09-06T14:04:39.660Z,60.23
2018-09-06T14:07:07.985Z,71.87
2018-09-06T14:09:36.331Z,70.07
2018-09-06T14:12:05.310Z,67.47
2018-09-06T14:14:33.886Z,69.13
2018-09-06T14:17:03.441Z,71.77
2018-09-06T14:19:31.805Z,61.17
2018-09-06T14:22:00.466Z,65.67
2018-09-06T14:24:29.012Z,67.30
2018-09-06T14:26:57.537Z,64.77
2018-09-06T14:29:25.865Z,66.20
2018-09-06T14:31:54.190Z,71.80
2018-09-06T14:34:22.634Z,69.37
2018-09-06T14:36:51.040Z,67.63
2018-09-06T14:39:19.405Z,68.50
2018-09-06T14:42:00.534Z,71.50
2018-09-06T14:44:29.265Z,71.40
2018-09-06T14:46:57.564Z,69.43
2018-09-06T14:49:26.653Z,62.60
2018-09-06T14:51:54.992Z,73.63
2018-09-06T14:54:23.382Z,76.60
2018-09-06T14:56:52.223Z,84.27
2018-09-06T14:59:28.191Z,74.53
2018-09-06T15:01:56.586Z,82.43
2018-09-06T15:04:24.988Z,76.53
2018-09-06T15:06:53.314Z,80.87
2018-09-06T15:09:21.624Z,82.90
2018-09-06T15:11:51.672Z,90.83
2018-09-06T15:14:19.993Z,81.37
2018-09-06T15:16:48.453Z,73.53
2018-09-06T15:19:23.842Z,85.33
2018-09-06T15:21:58.951Z,78.90
2018-09-06T15:24:27.347Z,67.03
2018-09-06T15:26:56.085Z,69.80
2018-09-06T15:29:24.768Z,74.73
2018-09-06T15:31:53.125Z,72.47
2018-09-06T15:34:22.042Z,65.80
2018-09-06T15:36:50.381Z,57.20
2018-09-06T15:39:19.012Z,59.93
2018-09-06T15:41:49.365Z,65.70
2018-09-06T15:44:17.793Z,59.23
2018-09-06T15:46:46.166Z,55.20
2018-09-06T15:49:14.541Z,63.47
2018-09-06T15:51:44.079Z,62.03
2018-09-06T15:54:12.554Z,61.37
2018-09-06T15:56:42.174Z,62.03
2018-09-06T15:59:17.530Z,71.13
2018-09-06T16:01:45.918Z,62.70
2018-09-06T16:04:14.937Z,69.27
2018-09-06T16:06:43.289Z,61.80
2018-09-06T16:09:13.695Z,62.93
2018-09-06T16:11:42.010Z,64.00
2018-09-06T16:14:10.451Z,71.60
2018-09-06T16:16:38.785Z,67.63
2018-09-06T16:19:07.089Z,70.80
2018-09-06T16:21:35.414Z,65.00
2018-09-06T16:24:03.798Z,60.13
2018-09-06T16:26:32.154Z,62.83
2018-09-06T16:29:00.474Z,69.83
2018-09-06T16:31:28.857Z,57.63
2018-09-06T16:33:57.292Z,60.53
2018-09-06T16:36:25.636Z,58.30
2018-09-06T16:38:53.990Z,65.77
2018-09-06T16:41:22.295Z,69.57
2018-09-06T16:43:50.599Z,67.50
2018-09-06T16:46:18.965Z,69.13
2018-09-06T16:48:47.314Z,74.57
2018-09-06T16:51:15.641Z,68.93
2018-09-06T16:53:43.984Z,83.80
2018-09-06T16:56:12.956Z,80.93
2018-09-06T16:58:41.276Z,90.23
2018-09-06T17:01:09.645Z,85.90
2018-09-06T17:03:38.325Z,79.73
2018-09-06T17:06:07.378Z,96.83
2018-09-06T17:08:35.739Z,79.23
2018-09-06T17:11:04.109Z,84.50
2018-09-06T17:13:32.446Z,100.63
2018-09-06T17:16:01.120Z,88.20
2018-09-06T17:18:29.450Z,83.37
2018-09-06T17:20:57.756Z,81.23
2018-09-06T17:23:30.008Z,83.27
2018-09-06T17:26:01.411Z,76.73
2018-09-06T17:28:33.596Z,111.77
2018-09-06T17:31:02.089Z,105.93
2018-09-06T17:33:31.026Z,102.40
2018-09-06T17:35:59.397Z,124.30
2018-09-06T17:38:27.833Z,94.20
2018-09-06T17:40:58.156Z,66.23
2018-09-06T17:43:28.676Z,79.17
2018-09-06T17:45:57.807Z,92.47
2018-09-06T17:48:26.727Z,96.43
2018-09-06T17:50:56.935Z,79.73
2018-09-06T17:53:25.305Z,116.70
2018-09-06T17:55:53.649Z,83.80
2018-09-06T17:58:22.002Z,80.17
2018-09-06T18:01:01.562Z,93.30
2018-09-06T18:03:29.933Z,79.50
2018-09-06T18:05:58.488Z,70.53
2018-09-06T18:08:26.835Z,86.80
2018-09-06T18:10:55.226Z,94.53
2018-09-06T18:13:23.582Z,64.27
2018-09-06T18:15:52.072Z,97.87
2018-09-06T18:18:20.436Z,63.93
2018-09-06T18:20:48.814Z,52.83
2018-09-06T18:23:17.190Z,34.67
2018-09-06T18:25:46.432Z,42.97
2018-09-06T18:28:15.481Z,42.93
2018-09-06T18:30:43.937Z,39.20
2018-09-06T18:33:12.381Z,30.80
2018-09-06T18:35:40.816Z,21.70
2018-09-06T18:38:09.204Z,20.27
2018-09-06T18:40:37.577Z,17.90
2018-09-06T18:43:05.953Z,20.47
2018-09-06T18:45:34.324Z,21.10
2018-09-06T18:48:02.665Z,15.10
2018-09-06T18:50:31.078Z,13.40
2018-09-06T18:53:00.250Z,14.90
2018-09-06T18:55:28.660Z,18.97
2018-09-06T18:58:05.931Z,14.13
2018-09-06T19:00:34.734Z,11.93
2018-09-06T19:03:03.061Z,19.60
2018-09-06T19:05:33.126Z,16.03
2018-09-06T19:08:02.260Z,15.73
2018-09-06T19:10:30.676Z,18.40
2018-09-06T19:12:59.091Z,20.90
2018-09-06T19:15:27.489Z,23.50
2018-09-06T19:17:55.948Z,16.97
2018-09-06T19:20:24.376Z,13.77
2018-09-06T19:22:52.691Z,16.27
2018-09-06T19:25:21.377Z,15.93
2018-09-06T19:27:49.902Z,19.40
2018-09-06T19:30:18.272Z,16.40
2018-09-06T19:32:46.590Z,19.73
2018-09-06T19:35:15.145Z,18.33
2018-09-06T19:37:43.528Z,19.77
2018-09-06T19:40:11.899Z,16.63
2018-09-06T19:42:40.236Z,20.83
2018-09-06T19:45:09.260Z,20.43
2018-09-06T19:47:37.661Z,20.70
2018-09-06T19:50:06.184Z,19.93
2018-09-06T19:52:34.555Z,20.80
2018-09-06T19:55:02.956Z,19.00
2018-09-06T19:57:35.734Z,17.80
2018-09-06T20:00:10.037Z,13.90
2018-09-06T20:02:41.888Z,15.50
2018-09-06T20:05:13.741Z,13.43
2018-09-06T20:07:45.681Z,18.00
2018-09-06T20:10:21.530Z,12.67
2018-09-06T20:12:54.329Z,13.83
2018-09-06T20:15:29.475Z,14.00
2018-09-06T20:18:01.036Z,18.50
2018-09-06T20:20:31.759Z,11.37
2018-09-06T20:23:05.223Z,11.50
2018-09-06T20:25:37.478Z,11.00
2018-09-06T20:28:13.825Z,12.40
2018-09-06T20:30:46.476Z,10.17
2018-09-06T20:33:22.705Z,25.20
2018-09-06T20:35:57.771Z,12.80
2018-09-06T20:38:31.174Z,12.80
2018-09-06T20:41:11.395Z,14.10
2018-09-06T20:43:44.753Z,12.93
2018-09-06T20:46:17.709Z,10.00
2018-09-06T20:48:52.848Z,10.80
2018-09-06T20:51:25.357Z,9.53
2018-09-06T20:53:57.988Z,8.93
2018-09-06T20:56:27.791Z,14.23
2018-09-06T20:58:56.836Z,8.30
2018-09-06T21:01:25.166Z,12.07
2018-09-06T21:03:53.466Z,9.63
2018-09-06T21:06:21.842Z,12.70
2018-09-06T21:08:50.223Z,15.80
2018-09-06T21:11:18.555Z,10.97
2018-09-06T21:13:46.961Z,12.40
2018-09-06T21:16:15.335Z,11.20
2018-09-06T21:18:43.660Z,16.90
2018-09-06T21:21:12.024Z,10.97
2018-09-06T21:23:40.433Z,11.60
2018-09-06T21:26:08.765Z,12.23
2018-09-06T21:28:37.186Z,11.20
2018-09-06T21:31:05.584Z,13.07
2018-09-06T21:33:33.902Z,19.33
2018-09-06T21:36:02.239Z,12.33
2018-09-06T21:38:30.565Z,14.30
2018-09-06T21:40:59.041Z,12.20
2018-09-06T21:43:27.409Z,14.00
2018-09-06T21:45:55.754Z,19.40
2018-09-06T21:48:24.080Z,20.70
2018-09-06T21:50:52.401Z,14.03
2018-09-06T21:53:20.751Z,13.83
2018-09-06T21:55:49.076Z,14.30
2018-09-06T21:58:17.409Z,17.07
2018-09-06T22:00:45.864Z,14.27
2018-09-06T22:04:17.625Z,11.63
2018-09-06T22:06:46.013Z,18.90
2018-09-06T22:09:14.426Z,20.93
2018-09-06T22:11:42.784Z,18.70
2018-09-06T22:14:11.169Z,14.83
2018-09-06T22:16:39.520Z,16.87
2018-09-06T22:19:08.068Z,13.20
2018-09-06T22:21:36.753Z,20.40
2018-09-06T22:24:05.127Z,16.80
2018-09-06T22:26:33.496Z,17.43
2018-09-06T22:29:01.814Z,17.43
2018-09-06T22:31:30.145Z,20.30
2018-09-06T22:33:58.486Z,12.33
2018-09-06T22:36:26.814Z,15.40
2018-09-06T22:38:55.172Z,14.83
2018-09-06T22:41:23.530Z,19.30
2018-09-06T22:43:51.857Z,19.40
2018-09-06T22:46:20.534Z,25.00
2018-09-06T22:48:48.921Z,19.47
2018-09-06T22:51:17.244Z,42.43
2018-09-06T22:53:45.565Z,25.50
2018-09-06T22:56:13.899Z,25.93
2018-09-06T22:58:42.242Z,29.10
2018-09-06T23:01:10.583Z,28.57
2018-09-06T23:03:43.108Z,26.97
2018-09-06T23:06:11.417Z,21.50
2018-09-06T23:08:39.744Z,26.40
2018-09-06T23:11:08.082Z,20.87
2018-09-06T23:13:36.389Z,31.60
2018-09-06T23:16:05.255Z,25.33
2018-09-06T23:18:33.566Z,27.10
2018-09-06T23:21:01.885Z,29.13
2018-09-06T23:23:30.247Z,25.80
2018-09-06T23:25:58.573Z,23.90
2018-09-06T23:28:26.892Z,21.63
2018-09-06T23:30:55.266Z,24.80
2018-09-06T23:33:23.776Z,27.50
2018-09-06T23:35:52.134Z,22.20
2018-09-06T23:38:20.501Z,25.27
2018-09-06T23:40:54.224Z,26.13
2018-09-06T23:43:23.573Z,23.70
2018-09-06T23:45:52.620Z,21.07
2018-09-06T23:48:22.790Z,22.13
2018-09-06T23:50:51.447Z,28.10
2018-09-06T23:53:19.805Z,17.20
2018-09-06T23:55:49.140Z,22.20
2018-09-06T23:58:17.598Z,20.80
